Time;durP1;ratioP1;P1;durP2;ratioP2;P2;SDS_P1;SDS_P2;PMS_P1;PMS_P2;Temp;Humidity;BMP_temperature;BMP_pressure;BME280_temperature;BME280_humidity;BME280_pressure;Samples;Min_cycle;Max_cycle;Signal;HPM_P1;HPM_P2
2021/12/04 00:05:03;;;;;;;26.48;13.48;;;-1.60;99.90;;;;;;20810671;28;20042;-48
2021/12/04 00:15:06;;;;;;;18.60;9.82;;;-1.60;99.90;;;;;;20826026;28;20107;-49
2021/12/04 00:25:09;;;;;;;18.35;9.23;;;-1.50;99.90;;;;;;20808299;28;20029;-48
2021/12/04 00:35:19;;;;;;;19.73;10.63;;;-1.70;99.90;;;;;;20807641;28;20482;-48
2021/12/04 00:55:43;;;;;;;26.92;14.25;;;-1.60;99.90;;;;;;20806912;28;20037;-48
2021/12/04 01:05:45;;;;;;;25.23;13.63;;;-1.60;99.90;;;;;;20806566;28;20029;-53
2021/12/04 01:15:47;;;;;;;26.67;15.18;;;-1.80;99.90;;;;;;20806443;28;20037;-47
2021/12/04 01:25:50;;;;;;;32.17;17.17;;;-2.10;99.90;;;;;;20803661;28;20037;-50
2021/12/04 01:35:52;;;;;;;29.20;16.52;;;-2.00;99.90;;;;;;20802940;28;20103;-50
2021/12/04 01:45:56;;;;;;;36.83;18.95;;;-1.80;99.90;;;;;;20803469;28;20041;-49
2021/12/04 01:56:01;;;;;;;39.50;19.63;;;-1.70;99.90;;;;;;20801688;28;20107;-48
2021/12/04 02:06:04;;;;;;;26.88;15.40;;;-1.70;99.90;;;;;;20802498;28;20493;-48
2021/12/04 02:16:18;;;;;;;28.08;15.18;;;-1.80;99.90;;;;;;20800247;28;20041;-48
2021/12/04 02:26:20;;;;;;;24.23;13.52;;;-2.10;99.90;;;;;;20799258;28;20478;-50
2021/12/04 02:36:23;;;;;;;22.67;11.77;;;-2.50;99.90;;;;;;20799785;28;20119;-47
2021/12/04 02:46:34;;;;;;;27.65;14.07;;;-2.70;99.90;;;;;;20799685;28;20844;-48
2021/12/04 02:56:36;;;;;;;23.97;12.03;;;-2.70;99.90;;;;;;20815560;28;20086;-47
2021/12/04 03:06:43;;;;;;;27.02;13.80;;;-2.60;99.90;;;;;;20800283;28;20083;-48
2021/12/04 03:16:45;;;;;;;23.80;12.13;;;-2.60;99.90;;;;;;20798597;28;20095;-47
2021/12/04 03:26:50;;;;;;;24.20;12.20;;;-2.50;99.90;;;;;;20797943;28;20057;-49
2021/12/04 03:47:13;;;;;;;15.75;8.77;;;-2.90;99.90;;;;;;20812158;28;20108;-49
2021/12/04 03:57:17;;;;;;;22.35;10.00;;;-3.10;99.90;;;;;;20812695;28;20052;-47
2021/12/04 04:07:19;;;;;;;22.95;12.23;;;-3.20;99.90;;;;;;20810660;28;20409;-47
2021/12/04 04:17:22;;;;;;;22.00;10.90;;;-2.90;99.90;;;;;;20809387;28;20041;-49
2021/12/04 04:27:24;;;;;;;19.52;10.90;;;-3.00;99.90;;;;;;20808809;28;20033;-49
2021/12/04 04:37:38;;;;;;;19.15;10.38;;;-3.00;99.90;;;;;;20807900;28;20514;-46
2021/12/04 05:18:35;;;;;;;27.05;13.73;;;-3.30;99.90;;;;;;20805879;28;20470;-51
2021/12/04 05:28:38;;;;;;;29.98;14.75;;;-3.10;99.90;;;;;;20804006;28;20508;-48
2021/12/04 05:38:40;;;;;;;38.22;20.23;;;-2.90;99.90;;;;;;20803283;28;20054;-47
2021/12/04 05:48:49;;;;;;;28.65;15.10;;;-2.60;99.90;;;;;;20803482;28;20037;-53
2021/12/04 05:58:52;;;;;;;32.47;16.92;;;-2.60;99.90;;;;;;20801463;28;20053;-48
2021/12/04 06:08:56;;;;;;;31.30;15.90;;;-2.60;99.90;;;;;;20786342;28;20099;-47
2021/12/04 06:19:09;;;;;;;31.23;15.38;;;-2.60;99.90;;;;;;20800359;28;20478;-47
2021/12/04 06:29:12;;;;;;;30.85;15.98;;;-2.60;99.90;;;;;;20799740;28;20041;-48
2021/12/04 06:39:14;;;;;;;31.45;16.38;;;-2.60;99.90;;;;;;20799299;28;20102;-51
2021/12/04 06:49:28;;;;;;;29.67;14.88;;;-2.70;99.90;;;;;;20799158;28;20037;-47
2021/12/04 06:59:33;;;;;;;35.03;17.55;;;-2.80;99.90;;;;;;20798794;28;20042;-50
2021/12/04 07:09:38;;;;;;;33.17;16.77;;;-2.70;99.90;;;;;;20798817;28;20045;-49
2021/12/04 07:19:41;;;;;;;33.58;16.42;;;-2.60;99.90;;;;;;20814221;28;20088;-47
2021/12/04 07:29:43;;;;;;;25.95;11.75;;;-2.80;99.90;;;;;;20814307;28;20450;-48
2021/12/04 07:39:46;;;;;;;29.65;14.57;;;-3.20;99.90;;;;;;20812655;28;20505;-49
2021/12/04 07:49:48;;;;;;;34.17;18.98;;;-2.70;99.90;;;;;;20811750;28;20042;-50
2021/12/04 07:59:52;;;;;;;29.05;15.73;;;-2.40;99.90;;;;;;20811092;28;20037;-52
2021/12/04 08:09:55;;;;;;;30.27;14.90;;;-2.50;99.90;;;;;;20809580;28;20086;-48
2021/12/04 08:19:58;;;;;;;23.50;12.40;;;-2.30;99.90;;;;;;20808891;28;20060;-49
2021/12/04 08:30:04;;;;;;;18.77;10.27;;;-1.70;99.90;;;;;;20807266;28;20091;-50
2021/12/04 08:40:11;;;;;;;16.90;9.25;;;-1.20;99.90;;;;;;20742912;28;20054;-51
2021/12/04 08:50:26;;;;;;;9.07;5.15;;;-0.50;99.90;;;;;;20741649;28;20038;-49
2021/12/04 09:00:51;;;;;;;7.05;3.95;;;0.10;99.90;;;;;;20740934;28;20092;-49
2021/12/04 09:10:56;;;;;;;7.57;4.50;;;0.50;99.90;;;;;;20744042;28;20038;-54
2021/12/04 09:20:58;;;;;;;6.25;3.13;;;0.80;99.90;;;;;;20805484;28;20095;-48
2021/12/04 09:31:34;;;;;;;1.63;1.13;;;0.70;99.60;;;;;;20804804;28;20041;-49
2021/12/04 10:02:16;;;;;;;7.65;3.58;;;2.00;99.90;;;;;;20803407;28;20087;-48
2021/12/04 10:13:15;;;;;;;6.43;3.22;;;2.50;98.10;;;;;;20789625;28;20442;-51
2021/12/04 10:23:04;;;;;;;6.28;3.63;;;3.10;95.90;;;;;;20719364;28;20108;-49
2021/12/04 10:33:13;;;;;;;3.58;2.22;;;3.80;93.10;;;;;;20741979;28;20042;-49
2021/12/04 10:43:29;;;;;;;2.15;1.05;;;3.60;84.20;;;;;;20802463;28;20072;-51
2021/12/04 10:53:37;;;;;;;2.83;1.40;;;3.40;79.40;;;;;;20833902;28;20045;-49
2021/12/04 11:03:51;;;;;;;9.23;5.63;;;3.50;79.60;;;;;;20817815;28;20037;-48
2021/12/04 11:44:57;;;;;;;2.92;1.73;;;4.20;77.80;;;;;;20813107;28;20064;-51
2021/12/04 11:55:02;;;;;;;4.68;2.03;;;4.10;81.60;;;;;;20813117;28;20056;-51
2021/12/04 12:05:08;;;;;;;3.15;1.77;;;4.30;80.60;;;;;;20812080;28;20033;-49
2021/12/04 12:15:33;;;;;;;3.28;1.75;;;4.20;78.10;;;;;;20775101;28;20038;-49
2021/12/04 12:36:10;;;;;;;0.40;0.20;;;4.50;89.40;;;;;;20772739;28;20049;-48
2021/12/04 12:46:14;;;;;;;1.88;1.00;;;4.80;97.30;;;;;;20809300;28;20068;-48
2021/12/04 12:56:17;;;;;;;1.42;0.40;;;5.40;98.40;;;;;;20807309;28;20042;-51
2021/12/04 13:16:45;;;;;;;0.35;0.20;;;4.80;99.90;;;;;;20805453;28;20049;-49
2021/12/04 13:26:51;;;;;;;0.10;0.10;;;4.50;99.90;;;;;;20805619;28;20111;-51
2021/12/04 13:36:55;;;;;;;2.92;0.80;;;3.80;99.90;;;;;;20805040;28;20651;-48
2021/12/04 13:47:08;;;;;;;0.13;0.10;;;3.90;99.90;;;;;;20803568;28;20099;-49
2021/12/04 13:57:14;;;;;;;0.30;0.10;;;3.90;99.90;;;;;;20803629;28;20106;-49
2021/12/04 14:07:16;;;;;;;0.70;0.10;;;4.20;99.90;;;;;;20802617;28;20486;-50
2021/12/04 14:17:21;;;;;;;0.25;0.00;;;4.30;99.90;;;;;;20748659;28;20100;-48
2021/12/04 14:27:34;;;;;;;0.25;0.03;;;4.30;99.90;;;;;;20727419;28;20059;-53
2021/12/04 14:37:42;;;;;;;0.22;0.00;;;4.00;99.90;;;;;;20800407;28;20049;-53
2021/12/04 14:47:56;;;;;;;6.32;3.67;;;3.80;99.90;;;;;;20800204;28;20147;-49
2021/12/04 14:58:04;;;;;;;12.18;6.00;;;3.50;99.90;;;;;;20799561;28;20033;-49
2021/12/04 15:08:14;;;;;;;10.25;5.72;;;1.80;99.90;;;;;;20799640;28;20559;-51
2021/12/04 15:18:20;;;;;;;12.70;7.50;;;0.30;99.90;;;;;;20736977;28;20034;-53
2021/12/04 15:28:28;;;;;;;12.90;6.43;;;-0.40;99.90;;;;;;20718533;28;20046;-48
2021/12/04 15:38:46;;;;;;;14.68;7.18;;;-0.40;99.90;;;;;;20792551;28;20041;-49
2021/12/04 15:59:07;;;;;;;15.30;7.65;;;-1.40;99.90;;;;;;20830004;28;20033;-48
2021/12/04 16:09:12;;;;;;;13.32;7.40;;;-1.40;99.90;;;;;;20811887;28;20037;-53
2021/12/04 16:19:14;;;;;;;9.88;5.68;;;-1.10;99.90;;;;;;20811228;28;20478;-48
2021/12/04 16:29:20;;;;;;;11.73;5.78;;;-1.00;99.90;;;;;;20809570;28;20405;-48
2021/12/04 16:39:23;;;;;;;14.45;6.68;;;-1.00;99.90;;;;;;20809043;28;20111;-48
2021/12/04 16:49:28;;;;;;;12.25;6.50;;;-1.20;99.90;;;;;;20807162;28;20099;-49
2021/12/04 16:59:34;;;;;;;12.00;5.85;;;-1.30;99.90;;;;;;20791349;28;20049;-47
2021/12/04 17:09:39;;;;;;;12.88;6.50;;;-1.30;99.90;;;;;;20808307;28;20083;-49
2021/12/04 17:19:41;;;;;;;12.88;6.95;;;-1.30;99.90;;;;;;20805836;28;20037;-48
2021/12/04 17:29:46;;;;;;;7.45;4.90;;;-1.30;99.90;;;;;;20805145;28;20091;-47
2021/12/04 17:39:52;;;;;;;8.40;4.10;;;-1.20;99.90;;;;;;20819346;28;20041;-50
2021/12/04 17:49:58;;;;;;;7.68;4.10;;;-0.90;99.90;;;;;;20803853;28;20129;-50
2021/12/04 18:00:06;;;;;;;9.25;4.78;;;-0.90;99.90;;;;;;20747325;28;20041;-50
2021/12/04 18:10:13;;;;;;;6.40;3.50;;;-0.90;99.90;;;;;;20721142;28;20471;-52
2021/12/04 18:20:20;;;;;;;10.27;5.18;;;-0.80;99.90;;;;;;20782286;28;20144;-49
2021/12/04 18:30:26;;;;;;;10.43;5.25;;;-1.00;99.90;;;;;;20801509;28;20046;-49
2021/12/04 18:40:31;;;;;;;9.55;5.13;;;-1.20;99.90;;;;;;20800443;28;20107;-50
2021/12/04 18:50:37;;;;;;;9.93;4.97;;;-1.30;99.90;;;;;;20800390;28;20438;-53
2021/12/04 19:00:41;;;;;;;12.65;6.25;;;-1.40;99.90;;;;;;20799862;28;20103;-50
2021/12/04 19:10:44;;;;;;;15.52;8.20;;;-1.50;99.90;;;;;;20824838;28;20095;-51
2021/12/04 19:20:51;;;;;;;12.13;6.70;;;-1.50;99.90;;;;;;20815756;28;20111;-49
2021/12/04 19:31:03;;;;;;;9.45;5.70;;;-1.50;99.90;;;;;;20814490;28;20029;-50
2021/12/04 19:51:27;;;;;;;14.60;7.50;;;-1.30;99.90;;;;;;20813176;28;20494;-49
2021/12/04 20:22:05;;;;;;;18.60;8.98;;;-1.50;99.90;;;;;;20810423;28;20107;-49
2021/12/04 21:49:21;;;;;;;18.58;10.15;;;-1.30;99.90;;;;;;20714035;28;20045;-49
2021/12/04 21:54:47;;;;;;;19.73;10.65;;;-1.40;99.90;;;;;;20713161;28;20050;-49
2021/12/04 22:56:51;;;;;;;;;;;-1.80;99.90;;;;;;20800196;28;20033;-50
